sensor_id;sensor_type;location;lat;lon;timestamp;P1;durP1;ratioP1;P2;durP2;ratioP2
38865;SDS011;62686;48.984;8.394;2023-09-12T00:01:28;8.30;;;5.85;;
38865;SDS011;62686;48.984;8.394;2023-09-12T00:03:58;12.50;;;6.50;;
38865;SDS011;62686;48.984;8.394;2023-09-12T00:06:27;10.90;;;7.47;;
38865;SDS011;62686;48.984;8.394;2023-09-12T00:08:55;8.80;;;6.60;;
38865;SDS011;62686;48.984;8.394;2023-09-12T00:11:24;10.02;;;6.82;;
38865;SDS011;62686;48.984;8.394;2023-09-12T00:13:53;7.40;;;6.40;;
38865;SDS011;62686;48.984;8.394;2023-09-12T00:16:21;8.57;;;6.68;;
38865;SDS011;62686;48.984;8.394;2023-09-12T00:18:49;9.85;;;7.13;;
38865;SDS011;62686;48.984;8.394;2023-09-12T00:21:18;9.70;;;6.75;;
38865;SDS011;62686;48.984;8.394;2023-09-12T00:23:46;8.13;;;6.75;;
38865;SDS011;62686;48.984;8.394;2023-09-12T00:26:14;7.72;;;6.90;;
38865;SDS011;62686;48.984;8.394;2023-09-12T00:28:44;10.10;;;7.05;;
38865;SDS011;62686;48.984;8.394;2023-09-12T00:31:12;10.75;;;6.90;;
38865;SDS011;62686;48.984;8.394;2023-09-12T00:33:40;9.55;;;7.65;;
38865;SDS011;62686;48.984;8.394;2023-09-12T00:36:09;11.35;;;7.72;;
38865;SDS011;62686;48.984;8.394;2023-09-12T00:38:37;10.50;;;7.25;;
38865;SDS011;62686;48.984;8.394;2023-09-12T00:41:05;9.95;;;7.50;;
38865;SDS011;62686;48.984;8.394;2023-09-12T00:43:33;10.70;;;8.15;;
38865;SDS011;62686;48.984;8.394;2023-09-12T00:46:03;10.18;;;7.15;;
38865;SDS011;62686;48.984;8.394;2023-09-12T00:48:31;9.40;;;7.65;;
38865;SDS011;62686;48.984;8.394;2023-09-12T00:51:00;9.25;;;6.68;;
38865;SDS011;62686;48.984;8.394;2023-09-12T00:53:29;11.70;;;6.75;;
38865;SDS011;62686;48.984;8.394;2023-09-12T00:55:57;9.63;;;7.35;;
38865;SDS011;62686;48.984;8.394;2023-09-12T00:58:27;10.63;;;7.40;;
38865;SDS011;62686;48.984;8.394;2023-09-12T01:00:56;10.68;;;6.40;;
38865;SDS011;62686;48.984;8.394;2023-09-12T01:03:26;11.13;;;6.60;;
38865;SDS011;62686;48.984;8.394;2023-09-12T01:05:55;8.77;;;6.95;;
38865;SDS011;62686;48.984;8.394;2023-09-12T01:08:24;7.10;;;6.40;;
38865;SDS011;62686;48.984;8.394;2023-09-12T01:10:56;8.07;;;7.05;;
38865;SDS011;62686;48.984;8.394;2023-09-12T01:13:25;7.32;;;6.53;;
38865;SDS011;62686;48.984;8.394;2023-09-12T01:15:54;12.20;;;6.45;;
38865;SDS011;62686;48.984;8.394;2023-09-12T01:18:23;9.35;;;7.13;;
38865;SDS011;62686;48.984;8.394;2023-09-12T01:20:59;7.97;;;6.72;;
38865;SDS011;62686;48.984;8.394;2023-09-12T01:23:54;8.43;;;6.53;;
38865;SDS011;62686;48.984;8.394;2023-09-12T01:26:39;8.20;;;7.13;;
38865;SDS011;62686;48.984;8.394;2023-09-12T01:29:18;7.78;;;6.97;;
38865;SDS011;62686;48.984;8.394;2023-09-12T01:31:48;10.02;;;6.53;;
38865;SDS011;62686;48.984;8.394;2023-09-12T01:34:18;10.00;;;7.47;;
38865;SDS011;62686;48.984;8.394;2023-09-12T01:36:46;10.45;;;7.95;;
38865;SDS011;62686;48.984;8.394;2023-09-12T01:39:14;10.38;;;8.45;;
38865;SDS011;62686;48.984;8.394;2023-09-12T01:41:43;9.15;;;7.40;;
38865;SDS011;62686;48.984;8.394;2023-09-12T01:44:15;8.88;;;7.57;;
38865;SDS011;62686;48.984;8.394;2023-09-12T01:46:45;9.88;;;7.30;;
38865;SDS011;62686;48.984;8.394;2023-09-12T01:49:16;7.63;;;6.78;;
38865;SDS011;62686;48.984;8.394;2023-09-12T01:51:48;8.43;;;7.22;;
38865;SDS011;62686;48.984;8.394;2023-09-12T01:54:17;11.38;;;7.63;;
38865;SDS011;62686;48.984;8.394;2023-09-12T01:56:47;8.93;;;7.82;;
38865;SDS011;62686;48.984;8.394;2023-09-12T01:59:16;10.93;;;8.02;;
38865;SDS011;62686;48.984;8.394;2023-09-12T02:01:45;11.15;;;7.82;;
38865;SDS011;62686;48.984;8.394;2023-09-12T02:04:14;9.93;;;7.55;;
38865;SDS011;62686;48.984;8.394;2023-09-12T02:06:42;9.88;;;7.70;;
38865;SDS011;62686;48.984;8.394;2023-09-12T02:09:10;8.20;;;7.38;;
38865;SDS011;62686;48.984;8.394;2023-09-12T02:11:38;9.95;;;7.72;;
38865;SDS011;62686;48.984;8.394;2023-09-12T02:14:06;10.82;;;7.13;;
38865;SDS011;62686;48.984;8.394;2023-09-12T02:16:36;14.25;;;7.53;;
38865;SDS011;62686;48.984;8.394;2023-09-12T02:19:07;11.20;;;7.53;;
38865;SDS011;62686;48.984;8.394;2023-09-12T02:21:35;8.75;;;7.10;;
38865;SDS011;62686;48.984;8.394;2023-09-12T02:24:04;8.35;;;7.30;;
38865;SDS011;62686;48.984;8.394;2023-09-12T02:26:33;8.18;;;6.82;;
38865;SDS011;62686;48.984;8.394;2023-09-12T02:29:02;9.07;;;7.50;;
38865;SDS011;62686;48.984;8.394;2023-09-12T02:31:32;11.00;;;7.18;;
38865;SDS011;62686;48.984;8.394;2023-09-12T02:34:00;8.02;;;6.72;;
38865;SDS011;62686;48.984;8.394;2023-09-12T02:36:30;8.38;;;7.47;;
38865;SDS011;62686;48.984;8.394;2023-09-12T02:38:58;8.90;;;6.85;;
38865;SDS011;62686;48.984;8.394;2023-09-12T02:41:26;10.13;;;7.43;;
38865;SDS011;62686;48.984;8.394;2023-09-12T02:43:54;8.63;;;7.00;;
38865;SDS011;62686;48.984;8.394;2023-09-12T02:46:22;10.07;;;8.05;;
38865;SDS011;62686;48.984;8.394;2023-09-12T02:48:50;9.43;;;7.47;;
38865;SDS011;62686;48.984;8.394;2023-09-12T02:51:19;9.63;;;7.65;;
38865;SDS011;62686;48.984;8.394;2023-09-12T02:53:48;9.73;;;7.68;;
38865;SDS011;62686;48.984;8.394;2023-09-12T02:56:16;10.15;;;7.63;;
38865;SDS011;62686;48.984;8.394;2023-09-12T02:58:45;10.00;;;7.10;;
38865;SDS011;62686;48.984;8.394;2023-09-12T03:01:14;8.55;;;7.25;;
38865;SDS011;62686;48.984;8.394;2023-09-12T03:03:43;8.93;;;7.38;;
38865;SDS011;62686;48.984;8.394;2023-09-12T03:06:13;8.55;;;7.40;;
38865;SDS011;62686;48.984;8.394;2023-09-12T03:08:41;10.57;;;7.60;;
38865;SDS011;62686;48.984;8.394;2023-09-12T03:11:11;8.07;;;7.00;;
38865;SDS011;62686;48.984;8.394;2023-09-12T03:13:40;9.10;;;7.32;;
38865;SDS011;62686;48.984;8.394;2023-09-12T03:16:12;10.68;;;7.68;;
38865;SDS011;62686;48.984;8.394;2023-09-12T03:18:41;10.05;;;7.63;;
38865;SDS011;62686;48.984;8.394;2023-09-12T03:21:09;12.07;;;8.00;;
38865;SDS011;62686;48.984;8.394;2023-09-12T03:23:37;9.77;;;7.45;;
38865;SDS011;62686;48.984;8.394;2023-09-12T03:26:05;10.10;;;7.55;;
38865;SDS011;62686;48.984;8.394;2023-09-12T03:28:35;8.23;;;7.43;;
38865;SDS011;62686;48.984;8.394;2023-09-12T03:31:05;9.88;;;7.53;;
38865;SDS011;62686;48.984;8.394;2023-09-12T03:33:34;10.30;;;7.68;;
38865;SDS011;62686;48.984;8.394;2023-09-12T03:36:03;10.00;;;7.72;;
38865;SDS011;62686;48.984;8.394;2023-09-12T03:38:31;11.65;;;7.15;;
38865;SDS011;62686;48.984;8.394;2023-09-12T03:41:00;8.40;;;7.50;;
38865;SDS011;62686;48.984;8.394;2023-09-12T03:43:28;9.30;;;7.30;;
38865;SDS011;62686;48.984;8.394;2023-09-12T03:45:58;8.60;;;7.70;;
38865;SDS011;62686;48.984;8.394;2023-09-12T03:48:26;8.57;;;7.68;;
38865;SDS011;62686;48.984;8.394;2023-09-12T03:50:56;10.00;;;7.93;;
38865;SDS011;62686;48.984;8.394;2023-09-12T03:53:25;9.50;;;7.65;;
38865;SDS011;62686;48.984;8.394;2023-09-12T03:55:54;11.73;;;7.45;;
38865;SDS011;62686;48.984;8.394;2023-09-12T03:58:22;9.13;;;7.50;;
38865;SDS011;62686;48.984;8.394;2023-09-12T04:00:50;9.32;;;7.05;;
38865;SDS011;62686;48.984;8.394;2023-09-12T04:03:20;7.80;;;7.00;;
38865;SDS011;62686;48.984;8.394;2023-09-12T04:05:49;8.43;;;7.53;;
38865;SDS011;62686;48.984;8.394;2023-09-12T04:08:18;7.85;;;6.65;;
38865;SDS011;62686;48.984;8.394;2023-09-12T04:10:46;8.63;;;7.03;;
38865;SDS011;62686;48.984;8.394;2023-09-12T04:13:14;13.02;;;6.82;;
38865;SDS011;62686;48.984;8.394;2023-09-12T04:15:42;7.90;;;6.43;;
38865;SDS011;62686;48.984;8.394;2023-09-12T04:18:10;8.10;;;7.25;;
38865;SDS011;62686;48.984;8.394;2023-09-12T04:20:40;12.00;;;7.50;;
38865;SDS011;62686;48.984;8.394;2023-09-12T04:23:08;8.90;;;6.25;;
38865;SDS011;62686;48.984;8.394;2023-09-12T04:25:36;9.45;;;6.63;;
38865;SDS011;62686;48.984;8.394;2023-09-12T04:28:05;11.82;;;6.63;;
38865;SDS011;62686;48.984;8.394;2023-09-12T04:30:33;9.73;;;6.45;;
38865;SDS011;62686;48.984;8.394;2023-09-12T04:33:01;7.82;;;7.00;;
38865;SDS011;62686;48.984;8.394;2023-09-12T04:35:32;11.80;;;7.25;;
38865;SDS011;62686;48.984;8.394;2023-09-12T04:38:02;9.18;;;6.90;;
38865;SDS011;62686;48.984;8.394;2023-09-12T04:40:30;8.15;;;7.25;;
38865;SDS011;62686;48.984;8.394;2023-09-12T04:42:58;9.80;;;7.20;;
38865;SDS011;62686;48.984;8.394;2023-09-12T04:45:27;9.73;;;7.43;;
38865;SDS011;62686;48.984;8.394;2023-09-12T04:47:55;8.35;;;6.72;;
38865;SDS011;62686;48.984;8.394;2023-09-12T04:50:23;9.40;;;6.47;;
38865;SDS011;62686;48.984;8.394;2023-09-12T04:52:51;7.18;;;6.28;;
38865;SDS011;62686;48.984;8.394;2023-09-12T04:55:21;8.60;;;6.53;;
38865;SDS011;62686;48.984;8.394;2023-09-12T04:57:49;8.93;;;7.60;;
38865;SDS011;62686;48.984;8.394;2023-09-12T05:00:17;7.18;;;6.47;;
38865;SDS011;62686;48.984;8.394;2023-09-12T05:02:45;8.70;;;6.88;;
38865;SDS011;62686;48.984;8.394;2023-09-12T05:05:14;7.80;;;7.00;;
38865;SDS011;62686;48.984;8.394;2023-09-12T05:14:46;8.75;;;6.68;;
38865;SDS011;62686;48.984;8.394;2023-09-12T05:21:21;8.45;;;7.30;;
38865;SDS011;62686;48.984;8.394;2023-09-12T05:23:49;9.95;;;7.13;;
38865;SDS011;62686;48.984;8.394;2023-09-12T05:26:18;13.75;;;7.00;;
38865;SDS011;62686;48.984;8.394;2023-09-12T05:28:46;8.90;;;6.82;;
38865;SDS011;62686;48.984;8.394;2023-09-12T05:31:15;11.07;;;7.45;;
38865;SDS011;62686;48.984;8.394;2023-09-12T05:33:43;8.43;;;6.78;;
38865;SDS011;62686;48.984;8.394;2023-09-12T05:36:12;9.10;;;6.90;;
38865;SDS011;62686;48.984;8.394;2023-09-12T05:38:40;9.13;;;6.93;;
38865;SDS011;62686;48.984;8.394;2023-09-12T05:41:08;8.23;;;7.05;;
38865;SDS011;62686;48.984;8.394;2023-09-12T05:43:37;7.75;;;6.70;;
38865;SDS011;62686;48.984;8.394;2023-09-12T05:46:05;8.88;;;6.47;;
38865;SDS011;62686;48.984;8.394;2023-09-12T05:48:34;9.68;;;6.93;;
38865;SDS011;62686;48.984;8.394;2023-09-12T05:51:03;10.05;;;7.65;;
38865;SDS011;62686;48.984;8.394;2023-09-12T05:53:31;9.68;;;6.65;;
38865;SDS011;62686;48.984;8.394;2023-09-12T05:55:59;8.73;;;7.55;;
38865;SDS011;62686;48.984;8.394;2023-09-12T05:58:31;11.40;;;7.60;;
38865;SDS011;62686;48.984;8.394;2023-09-12T06:01:00;9.18;;;7.38;;
38865;SDS011;62686;48.984;8.394;2023-09-12T06:03:29;12.73;;;7.65;;
38865;SDS011;62686;48.984;8.394;2023-09-12T06:05:59;10.55;;;8.02;;
38865;SDS011;62686;48.984;8.394;2023-09-12T06:08:27;13.05;;;8.25;;
38865;SDS011;62686;48.984;8.394;2023-09-12T06:10:55;10.25;;;7.43;;
38865;SDS011;62686;48.984;8.394;2023-09-12T06:13:23;9.65;;;7.80;;
38865;SDS011;62686;48.984;8.394;2023-09-12T06:15:52;8.82;;;7.20;;
38865;SDS011;62686;48.984;8.394;2023-09-12T06:18:20;9.23;;;7.30;;
38865;SDS011;62686;48.984;8.394;2023-09-12T06:20:50;8.23;;;7.07;;
38865;SDS011;62686;48.984;8.394;2023-09-12T06:23:20;11.02;;;7.25;;
38865;SDS011;62686;48.984;8.394;2023-09-12T06:25:48;9.77;;;8.30;;
38865;SDS011;62686;48.984;8.394;2023-09-12T06:28:24;12.73;;;7.75;;
38865;SDS011;62686;48.984;8.394;2023-09-12T06:30:52;7.30;;;6.55;;
38865;SDS011;62686;48.984;8.394;2023-09-12T06:33:21;8.95;;;6.55;;
38865;SDS011;62686;48.984;8.394;2023-09-12T06:35:49;13.75;;;7.38;;
38865;SDS011;62686;48.984;8.394;2023-09-12T06:38:21;7.72;;;6.90;;
38865;SDS011;62686;48.984;8.394;2023-09-12T06:40:50;7.80;;;6.03;;
38865;SDS011;62686;48.984;8.394;2023-09-12T06:43:18;14.82;;;6.38;;
38865;SDS011;62686;48.984;8.394;2023-09-12T06:45:49;7.90;;;5.60;;
38865;SDS011;62686;48.984;8.394;2023-09-12T06:48:19;6.05;;;4.57;;
38865;SDS011;62686;48.984;8.394;2023-09-12T06:50:48;6.50;;;4.43;;
38865;SDS011;62686;48.984;8.394;2023-09-12T06:53:17;6.45;;;4.55;;
38865;SDS011;62686;48.984;8.394;2023-09-12T06:55:47;6.63;;;4.65;;
38865;SDS011;62686;48.984;8.394;2023-09-12T06:58:15;8.10;;;4.75;;
38865;SDS011;62686;48.984;8.394;2023-09-12T07:00:44;6.18;;;4.47;;
38865;SDS011;62686;48.984;8.394;2023-09-12T07:03:12;4.95;;;4.25;;
38865;SDS011;62686;48.984;8.394;2023-09-12T07:05:41;8.35;;;4.57;;
38865;SDS011;62686;48.984;8.394;2023-09-12T07:08:10;5.05;;;4.50;;
38865;SDS011;62686;48.984;8.394;2023-09-12T07:10:43;7.15;;;4.55;;
38865;SDS011;62686;48.984;8.394;2023-09-12T07:13:13;5.07;;;4.50;;
38865;SDS011;62686;48.984;8.394;2023-09-12T07:15:42;4.93;;;4.22;;
38865;SDS011;62686;48.984;8.394;2023-09-12T07:18:10;5.90;;;4.05;;
38865;SDS011;62686;48.984;8.394;2023-09-12T07:20:42;6.45;;;4.40;;
38865;SDS011;62686;48.984;8.394;2023-09-12T07:23:11;6.93;;;4.47;;
38865;SDS011;62686;48.984;8.394;2023-09-12T07:25:42;7.10;;;4.25;;
38865;SDS011;62686;48.984;8.394;2023-09-12T07:28:10;6.28;;;4.97;;
38865;SDS011;62686;48.984;8.394;2023-09-12T07:30:40;6.40;;;4.28;;
38865;SDS011;62686;48.984;8.394;2023-09-12T07:33:08;5.65;;;5.03;;
38865;SDS011;62686;48.984;8.394;2023-09-12T07:35:36;9.73;;;5.20;;
38865;SDS011;62686;48.984;8.394;2023-09-12T07:38:06;8.40;;;4.80;;
38865;SDS011;62686;48.984;8.394;2023-09-12T07:40:34;5.05;;;4.35;;
38865;SDS011;62686;48.984;8.394;2023-09-12T07:43:03;6.28;;;4.63;;
38865;SDS011;62686;48.984;8.394;2023-09-12T07:45:31;7.43;;;4.00;;
38865;SDS011;62686;48.984;8.394;2023-09-12T07:48:08;6.95;;;4.43;;
38865;SDS011;62686;48.984;8.394;2023-09-12T07:50:37;5.70;;;4.35;;
38865;SDS011;62686;48.984;8.394;2023-09-12T07:53:06;4.78;;;3.70;;
38865;SDS011;62686;48.984;8.394;2023-09-12T07:55:36;6.03;;;4.25;;
38865;SDS011;62686;48.984;8.394;2023-09-12T07:58:12;5.63;;;4.10;;
38865;SDS011;62686;48.984;8.394;2023-09-12T08:00:41;7.68;;;4.20;;
38865;SDS011;62686;48.984;8.394;2023-09-12T08:03:13;5.18;;;4.00;;
38865;SDS011;62686;48.984;8.394;2023-09-12T08:05:41;9.48;;;4.65;;
38865;SDS011;62686;48.984;8.394;2023-09-12T08:08:09;5.35;;;3.92;;
38865;SDS011;62686;48.984;8.394;2023-09-12T08:10:37;6.68;;;3.90;;
38865;SDS011;62686;48.984;8.394;2023-09-12T08:13:06;6.53;;;4.13;;
38865;SDS011;62686;48.984;8.394;2023-09-12T08:15:34;6.10;;;4.10;;
38865;SDS011;62686;48.984;8.394;2023-09-12T08:18:02;5.75;;;4.32;;
38865;SDS011;62686;48.984;8.394;2023-09-12T08:20:32;6.30;;;3.63;;
38865;SDS011;62686;48.984;8.394;2023-09-12T08:23:00;5.53;;;4.22;;
38865;SDS011;62686;48.984;8.394;2023-09-12T08:25:28;9.20;;;4.78;;
38865;SDS011;62686;48.984;8.394;2023-09-12T08:27:57;8.18;;;4.00;;
38865;SDS011;62686;48.984;8.394;2023-09-12T08:30:25;6.00;;;4.25;;
38865;SDS011;62686;48.984;8.394;2023-09-12T08:32:54;5.88;;;3.55;;
38865;SDS011;62686;48.984;8.394;2023-09-12T08:35:22;5.05;;;4.10;;
38865;SDS011;62686;48.984;8.394;2023-09-12T08:37:55;5.47;;;3.97;;
38865;SDS011;62686;48.984;8.394;2023-09-12T08:40:23;6.90;;;3.92;;
38865;SDS011;62686;48.984;8.394;2023-09-12T08:42:52;9.05;;;4.45;;
38865;SDS011;62686;48.984;8.394;2023-09-12T08:45:21;5.97;;;4.32;;
38865;SDS011;62686;48.984;8.394;2023-09-12T08:47:49;4.55;;;4.10;;
38865;SDS011;62686;48.984;8.394;2023-09-12T08:50:20;9.15;;;4.45;;
38865;SDS011;62686;48.984;8.394;2023-09-12T08:52:50;6.85;;;4.40;;
38865;SDS011;62686;48.984;8.394;2023-09-12T08:55:30;6.28;;;3.97;;
38865;SDS011;62686;48.984;8.394;2023-09-12T08:57:59;5.63;;;3.95;;
38865;SDS011;62686;48.984;8.394;2023-09-12T09:00:30;7.20;;;4.70;;
38865;SDS011;62686;48.984;8.394;2023-09-12T09:02:59;5.93;;;4.38;;
38865;SDS011;62686;48.984;8.394;2023-09-12T09:05:29;5.22;;;4.35;;
38865;SDS011;62686;48.984;8.394;2023-09-12T09:07:58;5.45;;;4.53;;
38865;SDS011;62686;48.984;8.394;2023-09-12T09:10:28;6.55;;;5.10;;
38865;SDS011;62686;48.984;8.394;2023-09-12T09:13:09;5.82;;;4.40;;
38865;SDS011;62686;48.984;8.394;2023-09-12T09:15:39;5.15;;;4.45;;
38865;SDS011;62686;48.984;8.394;2023-09-12T09:21:27;11.73;;;4.75;;
38865;SDS011;62686;48.984;8.394;2023-09-12T09:24:07;5.03;;;4.43;;
38865;SDS011;62686;48.984;8.394;2023-09-12T09:27:04;6.75;;;4.28;;
38865;SDS011;62686;48.984;8.394;2023-09-12T09:39:03;6.28;;;4.88;;
38865;SDS011;62686;48.984;8.394;2023-09-12T09:44:22;8.13;;;5.00;;
38865;SDS011;62686;48.984;8.394;2023-09-12T09:53:25;6.95;;;4.90;;
38865;SDS011;62686;48.984;8.394;2023-09-12T09:56:07;7.75;;;5.07;;
38865;SDS011;62686;48.984;8.394;2023-09-12T09:59:09;6.15;;;4.90;;
38865;SDS011;62686;48.984;8.394;2023-09-12T10:02:05;7.90;;;4.65;;
38865;SDS011;62686;48.984;8.394;2023-09-12T10:04:50;5.72;;;4.85;;
38865;SDS011;62686;48.984;8.394;2023-09-12T10:07:37;5.90;;;4.43;;
38865;SDS011;62686;48.984;8.394;2023-09-12T10:10:07;9.38;;;5.45;;
38865;SDS011;62686;48.984;8.394;2023-09-12T10:12:39;8.43;;;5.15;;
38865;SDS011;62686;48.984;8.394;2023-09-12T10:15:16;6.53;;;4.82;;
38865;SDS011;62686;48.984;8.394;2023-09-12T10:17:47;6.65;;;4.85;;
38865;SDS011;62686;48.984;8.394;2023-09-12T10:20:24;7.88;;;5.28;;
38865;SDS011;62686;48.984;8.394;2023-09-12T10:22:58;6.57;;;4.40;;
38865;SDS011;62686;48.984;8.394;2023-09-12T10:25:36;7.70;;;5.00;;
38865;SDS011;62686;48.984;8.394;2023-09-12T10:28:08;6.85;;;5.32;;
38865;SDS011;62686;48.984;8.394;2023-09-12T10:30:37;8.02;;;5.13;;
38865;SDS011;62686;48.984;8.394;2023-09-12T10:33:07;5.80;;;4.65;;
38865;SDS011;62686;48.984;8.394;2023-09-12T10:35:36;10.20;;;4.88;;
38865;SDS011;62686;48.984;8.394;2023-09-12T10:38:07;10.60;;;4.85;;
38865;SDS011;62686;48.984;8.394;2023-09-12T10:40:37;5.95;;;4.95;;
38865;SDS011;62686;48.984;8.394;2023-09-12T10:43:06;5.43;;;4.70;;
38865;SDS011;62686;48.984;8.394;2023-09-12T10:45:38;5.60;;;4.65;;
38865;SDS011;62686;48.984;8.394;2023-09-12T10:48:08;8.75;;;4.65;;
38865;SDS011;62686;48.984;8.394;2023-09-12T10:50:37;9.43;;;5.43;;
38865;SDS011;62686;48.984;8.394;2023-09-12T10:53:10;9.25;;;5.18;;
38865;SDS011;62686;48.984;8.394;2023-09-12T10:55:40;5.95;;;4.65;;
38865;SDS011;62686;48.984;8.394;2023-09-12T10:58:09;5.55;;;4.35;;
38865;SDS011;62686;48.984;8.394;2023-09-12T11:00:38;7.15;;;4.47;;
38865;SDS011;62686;48.984;8.394;2023-09-12T11:06:19;7.97;;;4.40;;
38865;SDS011;62686;48.984;8.394;2023-09-12T11:11:47;5.85;;;4.55;;
38865;SDS011;62686;48.984;8.394;2023-09-12T11:14:16;9.57;;;4.38;;
38865;SDS011;62686;48.984;8.394;2023-09-12T11:19:48;5.10;;;4.47;;
38865;SDS011;62686;48.984;8.394;2023-09-12T11:22:23;5.97;;;4.57;;
38865;SDS011;62686;48.984;8.394;2023-09-12T11:24:52;4.68;;;4.10;;
38865;SDS011;62686;48.984;8.394;2023-09-12T11:27:24;5.50;;;3.90;;
38865;SDS011;62686;48.984;8.394;2023-09-12T11:30:03;4.55;;;4.03;;
38865;SDS011;62686;48.984;8.394;2023-09-12T11:32:32;5.55;;;3.85;;
38865;SDS011;62686;48.984;8.394;2023-09-12T11:35:04;5.78;;;4.13;;
38865;SDS011;62686;48.984;8.394;2023-09-12T11:37:33;6.43;;;3.70;;
38865;SDS011;62686;48.984;8.394;2023-09-12T11:40:14;3.97;;;3.17;;
38865;SDS011;62686;48.984;8.394;2023-09-12T11:42:47;5.28;;;3.58;;
38865;SDS011;62686;48.984;8.394;2023-09-12T11:45:17;6.03;;;3.20;;
38865;SDS011;62686;48.984;8.394;2023-09-12T11:47:46;4.63;;;3.25;;
38865;SDS011;62686;48.984;8.394;2023-09-12T11:50:28;4.38;;;3.60;;
38865;SDS011;62686;48.984;8.394;2023-09-12T11:53:00;6.95;;;3.40;;
38865;SDS011;62686;48.984;8.394;2023-09-12T11:55:33;6.68;;;3.50;;
38865;SDS011;62686;48.984;8.394;2023-09-12T11:58:05;7.13;;;3.70;;
38865;SDS011;62686;48.984;8.394;2023-09-12T12:00:33;3.78;;;3.40;;
38865;SDS011;62686;48.984;8.394;2023-09-12T12:03:02;7.40;;;3.88;;
38865;SDS011;62686;48.984;8.394;2023-09-12T12:05:31;6.68;;;3.53;;
38865;SDS011;62686;48.984;8.394;2023-09-12T12:08:02;4.00;;;3.00;;
38865;SDS011;62686;48.984;8.394;2023-09-12T12:10:34;3.97;;;3.03;;
38865;SDS011;62686;48.984;8.394;2023-09-12T12:13:02;4.05;;;3.42;;
38865;SDS011;62686;48.984;8.394;2023-09-12T12:15:32;7.30;;;3.47;;
38865;SDS011;62686;48.984;8.394;2023-09-12T12:18:00;4.20;;;3.13;;
38865;SDS011;62686;48.984;8.394;2023-09-12T12:20:28;4.80;;;3.47;;
38865;SDS011;62686;48.984;8.394;2023-09-12T12:22:56;6.15;;;3.42;;
38865;SDS011;62686;48.984;8.394;2023-09-12T12:25:25;4.38;;;3.17;;
38865;SDS011;62686;48.984;8.394;2023-09-12T12:27:53;5.28;;;3.30;;
38865;SDS011;62686;48.984;8.394;2023-09-12T12:30:23;11.43;;;3.28;;
38865;SDS011;62686;48.984;8.394;2023-09-12T12:32:51;3.72;;;3.33;;
38865;SDS011;62686;48.984;8.394;2023-09-12T12:35:20;5.55;;;3.67;;
38865;SDS011;62686;48.984;8.394;2023-09-12T12:37:49;5.45;;;3.38;;
38865;SDS011;62686;48.984;8.394;2023-09-12T12:40:23;5.05;;;3.13;;
38865;SDS011;62686;48.984;8.394;2023-09-12T12:42:51;4.22;;;3.22;;
38865;SDS011;62686;48.984;8.394;2023-09-12T12:45:21;4.22;;;3.33;;
38865;SDS011;62686;48.984;8.394;2023-09-12T12:47:51;4.15;;;3.20;;
38865;SDS011;62686;48.984;8.394;2023-09-12T12:50:25;4.10;;;3.10;;
38865;SDS011;62686;48.984;8.394;2023-09-12T12:52:53;4.85;;;3.22;;
38865;SDS011;62686;48.984;8.394;2023-09-12T12:55:22;4.18;;;3.13;;
38865;SDS011;62686;48.984;8.394;2023-09-12T12:57:53;5.93;;;3.13;;
38865;SDS011;62686;48.984;8.394;2023-09-12T13:00:21;4.10;;;2.75;;
38865;SDS011;62686;48.984;8.394;2023-09-12T13:02:51;3.80;;;2.67;;
38865;SDS011;62686;48.984;8.394;2023-09-12T13:05:20;4.65;;;3.22;;
38865;SDS011;62686;48.984;8.394;2023-09-12T13:07:49;3.35;;;3.05;;
38865;SDS011;62686;48.984;8.394;2023-09-12T13:10:18;5.10;;;3.17;;
38865;SDS011;62686;48.984;8.394;2023-09-12T13:12:46;3.80;;;3.08;;
38865;SDS011;62686;48.984;8.394;2023-09-12T13:15:15;5.85;;;2.95;;
38865;SDS011;62686;48.984;8.394;2023-09-12T13:17:46;4.65;;;3.38;;
38865;SDS011;62686;48.984;8.394;2023-09-12T13:20:15;4.03;;;3.13;;
38865;SDS011;62686;48.984;8.394;2023-09-12T13:22:43;5.10;;;2.92;;
38865;SDS011;62686;48.984;8.394;2023-09-12T13:25:11;4.90;;;3.20;;
38865;SDS011;62686;48.984;8.394;2023-09-12T13:27:39;4.47;;;2.85;;
38865;SDS011;62686;48.984;8.394;2023-09-12T13:30:09;4.28;;;3.00;;
38865;SDS011;62686;48.984;8.394;2023-09-12T13:32:38;4.78;;;3.17;;
38865;SDS011;62686;48.984;8.394;2023-09-12T13:35:08;6.38;;;3.05;;
38865;SDS011;62686;48.984;8.394;2023-09-12T13:37:36;4.20;;;2.92;;
38865;SDS011;62686;48.984;8.394;2023-09-12T13:40:05;5.15;;;3.50;;
38865;SDS011;62686;48.984;8.394;2023-09-12T13:42:35;4.15;;;2.80;;
38865;SDS011;62686;48.984;8.394;2023-09-12T13:45:03;4.75;;;3.17;;
38865;SDS011;62686;48.984;8.394;2023-09-12T13:47:32;4.85;;;2.90;;
38865;SDS011;62686;48.984;8.394;2023-09-12T13:50:00;7.50;;;3.15;;
38865;SDS011;62686;48.984;8.394;2023-09-12T13:52:30;3.28;;;2.80;;
38865;SDS011;62686;48.984;8.394;2023-09-12T13:54:58;7.53;;;2.85;;
38865;SDS011;62686;48.984;8.394;2023-09-12T13:57:29;3.40;;;2.78;;
38865;SDS011;62686;48.984;8.394;2023-09-12T13:59:59;3.42;;;2.90;;
38865;SDS011;62686;48.984;8.394;2023-09-12T14:02:28;3.20;;;2.70;;
38865;SDS011;62686;48.984;8.394;2023-09-12T14:04:56;3.65;;;2.80;;
38865;SDS011;62686;48.984;8.394;2023-09-12T14:07:33;4.63;;;2.90;;
38865;SDS011;62686;48.984;8.394;2023-09-12T14:10:03;7.47;;;3.10;;
38865;SDS011;62686;48.984;8.394;2023-09-12T14:12:32;5.45;;;3.15;;
38865;SDS011;62686;48.984;8.394;2023-09-12T14:15:00;7.13;;;3.00;;
38865;SDS011;62686;48.984;8.394;2023-09-12T14:17:32;3.97;;;2.90;;
38865;SDS011;62686;48.984;8.394;2023-09-12T14:20:01;3.55;;;2.70;;
38865;SDS011;62686;48.984;8.394;2023-09-12T14:22:29;3.15;;;2.58;;
38865;SDS011;62686;48.984;8.394;2023-09-12T14:25:00;5.20;;;2.88;;
38865;SDS011;62686;48.984;8.394;2023-09-12T14:27:28;4.15;;;2.80;;
38865;SDS011;62686;48.984;8.394;2023-09-12T14:30:00;6.63;;;2.97;;
38865;SDS011;62686;48.984;8.394;2023-09-12T14:32:29;4.38;;;3.10;;
38865;SDS011;62686;48.984;8.394;2023-09-12T14:34:58;5.90;;;3.05;;
38865;SDS011;62686;48.984;8.394;2023-09-12T14:37:26;5.20;;;2.72;;
38865;SDS011;62686;48.984;8.394;2023-09-12T14:39:54;5.53;;;3.13;;
38865;SDS011;62686;48.984;8.394;2023-09-12T14:42:24;3.55;;;3.00;;
38865;SDS011;62686;48.984;8.394;2023-09-12T14:44:52;4.30;;;2.67;;
38865;SDS011;62686;48.984;8.394;2023-09-12T14:47:20;4.97;;;3.15;;
38865;SDS011;62686;48.984;8.394;2023-09-12T14:49:48;3.03;;;2.72;;
38865;SDS011;62686;48.984;8.394;2023-09-12T14:52:17;3.42;;;3.13;;
38865;SDS011;62686;48.984;8.394;2023-09-12T14:54:50;4.05;;;3.17;;
38865;SDS011;62686;48.984;8.394;2023-09-12T14:57:18;3.60;;;3.10;;
38865;SDS011;62686;48.984;8.394;2023-09-12T14:59:49;5.03;;;3.10;;
38865;SDS011;62686;48.984;8.394;2023-09-12T15:02:18;3.55;;;3.25;;
38865;SDS011;62686;48.984;8.394;2023-09-12T15:04:46;6.55;;;3.25;;
38865;SDS011;62686;48.984;8.394;2023-09-12T15:07:15;4.15;;;3.10;;
38865;SDS011;62686;48.984;8.394;2023-09-12T15:09:43;3.67;;;3.33;;
38865;SDS011;62686;48.984;8.394;2023-09-12T15:12:11;4.78;;;3.25;;
38865;SDS011;62686;48.984;8.394;2023-09-12T15:14:40;5.85;;;3.47;;
38865;SDS011;62686;48.984;8.394;2023-09-12T15:17:09;4.22;;;3.10;;
38865;SDS011;62686;48.984;8.394;2023-09-12T15:19:38;3.67;;;3.00;;
38865;SDS011;62686;48.984;8.394;2023-09-12T15:22:06;3.55;;;3.22;;
38865;SDS011;62686;48.984;8.394;2023-09-12T15:24:34;4.47;;;2.95;;
38865;SDS011;62686;48.984;8.394;2023-09-12T15:27:03;3.33;;;3.03;;
38865;SDS011;62686;48.984;8.394;2023-09-12T15:29:31;3.88;;;3.08;;
38865;SDS011;62686;48.984;8.394;2023-09-12T15:31:59;5.22;;;2.95;;
38865;SDS011;62686;48.984;8.394;2023-09-12T15:34:29;6.30;;;3.17;;
38865;SDS011;62686;48.984;8.394;2023-09-12T15:37:05;6.65;;;3.10;;
38865;SDS011;62686;48.984;8.394;2023-09-12T15:39:45;5.32;;;3.38;;
38865;SDS011;62686;48.984;8.394;2023-09-12T15:42:14;5.25;;;3.33;;
38865;SDS011;62686;48.984;8.394;2023-09-12T15:44:52;3.20;;;2.90;;